Terminal Aerodrome Forecast
Issued by NWS

Current Version | Previous Version | Text Only | Print | Product List | Glossary On
Versions: 1 2 3 4 5 6 7 8 9 10 11 12 13 14 15 16 17 18 19 20 21 22 23 24 25 26 27
000
FTUS45 KREV 221100
TAFTRK
TAF
KTRK 221131Z 2212/2312 00000KT 1/4SM FG SCT001 OVC008
     FM221600 23008KT 5SM HZ SCT180
     FM221900 24010KT 1SM HZ FU SCT015 SCT180
     FM230400 VRB03KT 4SM HZ SCT180=

USA.gov is the U.S. government's official web portal to all federal, state and local government web resources and services.